Time;durP1;ratioP1;P1;durP2;ratioP2;P2;SDS_P1;SDS_P2;PMS_P1;PMS_P2;Temp;Humidity;BMP_temperature;BMP_pressure;BME280_temperature;BME280_humidity;BME280_pressure;Samples;Min_cycle;Max_cycle;Signal;HPM_P1;HPM_P2
2023/08/27 00:02:11;;;;;;;7.33;2.00;;;;;;;;;;5053739;28;20028;-75
2023/08/27 00:04:36;;;;;;;5.20;2.08;;;;;;;;;;5053428;28;20306;-75
2023/08/27 00:07:01;;;;;;;2.45;1.80;;;;;;;;;;5053713;28;20078;-75
2023/08/27 00:09:27;;;;;;;3.27;1.90;;;;;;;;;;5053332;28;20083;-74
2023/08/27 00:11:52;;;;;;;3.78;2.20;;;;;;;;;;5054000;28;20257;-75
2023/08/27 00:14:17;;;;;;;3.53;1.90;;;;;;;;;;5052163;28;20029;-75
2023/08/27 00:16:42;;;;;;;2.78;1.90;;;;;;;;;;5052961;28;20036;-75
2023/08/27 00:19:08;;;;;;;3.57;2.03;;;;;;;;;;5051827;28;20017;-75
2023/08/27 00:21:33;;;;;;;6.05;1.77;;;;;;;;;;5053380;28;20276;-75
2023/08/27 00:23:59;;;;;;;2.67;1.97;;;;;;;;;;5053198;28;20021;-75
2023/08/27 00:26:24;;;;;;;3.87;2.10;;;;;;;;;;5051557;28;20810;-75
2023/08/27 00:28:49;;;;;;;3.50;2.05;;;;;;;;;;5053107;28;20258;-75
2023/08/27 00:31:14;;;;;;;4.47;2.40;;;;;;;;;;5053221;28;20028;-75
2023/08/27 00:33:40;;;;;;;3.67;2.20;;;;;;;;;;5053017;28;20281;-75
2023/08/27 00:36:05;;;;;;;4.10;2.20;;;;;;;;;;5051657;28;20254;-75
2023/08/27 00:38:30;;;;;;;2.72;2.25;;;;;;;;;;5052579;28;20270;-75
2023/08/27 00:40:55;;;;;;;4.63;2.40;;;;;;;;;;5051461;28;20026;-75
2023/08/27 00:43:21;;;;;;;4.63;2.20;;;;;;;;;;5053093;28;20254;-75
2023/08/27 00:45:46;;;;;;;3.63;2.35;;;;;;;;;;5053049;28;20266;-75
2023/08/27 00:48:12;;;;;;;5.15;2.35;;;;;;;;;;5052673;28;20056;-75
2023/08/27 00:50:37;;;;;;;4.57;2.50;;;;;;;;;;5052717;28;20445;-75
2023/08/27 00:53:03;;;;;;;3.58;2.40;;;;;;;;;;5052930;28;20499;-75
2023/08/27 00:55:28;;;;;;;4.97;2.60;;;;;;;;;;5056581;28;20029;-75
2023/08/27 00:57:54;;;;;;;5.25;2.63;;;;;;;;;;5055472;28;20025;-75
2023/08/27 01:00:20;;;;;;;3.97;2.45;;;;;;;;;;5056607;28;20559;-75
2023/08/27 01:02:47;;;;;;;3.45;2.10;;;;;;;;;;5056725;28;20021;-75
2023/08/27 01:05:13;;;;;;;4.18;2.50;;;;;;;;;;5055107;28;20029;-75
2023/08/27 01:07:56;;;;;;;2.97;2.38;;;;;;;;;;5056146;28;20029;-75
2023/08/27 01:10:37;;;;;;;4.18;2.45;;;;;;;;;;5056301;28;20043;-75
2023/08/27 01:13:07;;;;;;;6.65;2.50;;;;;;;;;;5056717;28;20033;-74
2023/08/27 01:15:32;;;;;;;6.20;2.50;;;;;;;;;;5056546;28;20025;-75
2023/08/27 01:17:59;;;;;;;3.63;2.40;;;;;;;;;;5055947;28;20024;-75
2023/08/27 01:20:26;;;;;;;4.03;2.50;;;;;;;;;;5056360;28;20056;-75
2023/08/27 01:22:51;;;;;;;4.38;2.40;;;;;;;;;;5054873;28;20032;-75
2023/08/27 01:25:19;;;;;;;4.03;2.22;;;;;;;;;;5055175;28;20027;-75
2023/08/27 01:27:50;;;;;;;3.00;2.20;;;;;;;;;;5056021;28;20082;-75
2023/08/27 01:30:30;;;;;;;3.60;2.08;;;;;;;;;;5056641;28;20368;-75
2023/08/27 01:33:04;;;;;;;3.28;2.30;;;;;;;;;;5055735;28;20400;-75
2023/08/27 01:35:30;;;;;;;;;;;;;;;;;;5056524;28;20070;-75
2023/08/27 01:37:56;;;;;;;4.18;2.25;;;;;;;;;;5055471;28;20368;-75
2023/08/27 01:40:21;;;;;;;4.43;2.10;;;;;;;;;;5055398;28;20032;-75
2023/08/27 01:42:47;;;;;;;4.47;2.37;;;;;;;;;;5055598;28;20033;-75
2023/08/27 01:45:14;;;;;;;3.28;2.00;;;;;;;;;;5055915;28;20254;-74
2023/08/27 01:47:39;;;;;;;3.53;2.28;;;;;;;;;;5055409;28;20060;-75
2023/08/27 01:50:05;;;;;;;3.00;2.30;;;;;;;;;;5054167;28;20017;-75
2023/08/27 01:52:31;;;;;;;5.03;2.05;;;;;;;;;;5054091;28;20265;-75
2023/08/27 01:54:56;;;;;;;3.72;2.20;;;;;;;;;;5055211;28;20033;-75
2023/08/27 01:57:22;;;;;;;3.15;1.80;;;;;;;;;;5055433;28;20380;-74
2023/08/27 01:59:47;;;;;;;2.77;2.10;;;;;;;;;;5055212;28;20028;-75
2023/08/27 02:02:12;;;;;;;4.07;1.70;;;;;;;;;;5055191;28;20261;-75
2023/08/27 02:04:37;;;;;;;5.83;1.87;;;;;;;;;;5053779;28;20254;-75
2023/08/27 02:07:03;;;;;;;4.20;2.00;;;;;;;;;;5054540;28;20653;-75
2023/08/27 02:09:28;;;;;;;3.50;1.70;;;;;;;;;;5055179;28;20029;-75
2023/08/27 02:11:54;;;;;;;3.20;2.00;;;;;;;;;;5055156;28;20113;-75
2023/08/27 02:14:19;;;;;;;3.78;1.95;;;;;;;;;;5055280;28;20737;-75
2023/08/27 02:16:45;;;;;;;3.15;1.90;;;;;;;;;;5053606;28;20021;-75
2023/08/27 02:19:10;;;;;;;4.90;1.93;;;;;;;;;;5054621;28;20024;-75
2023/08/27 02:21:35;;;;;;;4.67;2.03;;;;;;;;;;5054808;28;20321;-75
2023/08/27 02:24:00;;;;;;;4.95;1.90;;;;;;;;;;5054567;28;20257;-75
2023/08/27 02:26:26;;;;;;;4.93;1.97;;;;;;;;;;5054452;28;20029;-75
2023/08/27 02:28:51;;;;;;;6.53;2.10;;;;;;;;;;5053222;28;20610;-75
2023/08/27 02:31:16;;;;;;;2.63;1.95;;;;;;;;;;5054360;28;20047;-75
2023/08/27 02:33:44;;;;;;;5.00;2.10;;;;;;;;;;5054605;28;20032;-75
2023/08/27 02:36:09;;;;;;;3.38;1.95;;;;;;;;;;5052894;28;20025;-74
2023/08/27 02:38:34;;;;;;;2.58;1.85;;;;;;;;;;5053151;28;20071;-74
2023/08/27 02:41:00;;;;;;;3.13;2.10;;;;;;;;;;5054206;28;20412;-75
2023/08/27 02:43:25;;;;;;;5.88;2.05;;;;;;;;;;5054188;28;20061;-75
2023/08/27 02:45:51;;;;;;;3.35;2.10;;;;;;;;;;5053904;28;20025;-75
2023/08/27 02:48:16;;;;;;;2.80;2.10;;;;;;;;;;5053944;28;20060;-75
2023/08/27 02:50:41;;;;;;;3.88;1.88;;;;;;;;;;5054403;28;20426;-75
2023/08/27 02:53:07;;;;;;;5.75;2.30;;;;;;;;;;5053991;28;20021;-75
2023/08/27 02:55:32;;;;;;;3.95;1.70;;;;;;;;;;5054081;28;20025;-75
2023/08/27 02:57:58;;;;;;;4.70;2.03;;;;;;;;;;5053976;28;20021;-75
2023/08/27 03:00:24;;;;;;;6.03;2.20;;;;;;;;;;5053843;28;20036;-75
2023/08/27 03:02:49;;;;;;;3.50;1.95;;;;;;;;;;5053703;28;20029;-75
2023/08/27 03:05:15;;;;;;;6.30;2.00;;;;;;;;;;5054542;28;20035;-75
2023/08/27 03:07:40;;;;;;;3.00;2.05;;;;;;;;;;5052951;28;20273;-75
2023/08/27 03:10:06;;;;;;;3.07;1.87;;;;;;;;;;5053592;28;20045;-75
2023/08/27 03:12:31;;;;;;;2.53;1.95;;;;;;;;;;5053605;28;20757;-75
2023/08/27 03:14:56;;;;;;;3.38;2.00;;;;;;;;;;5053634;28;20025;-75
2023/08/27 03:17:22;;;;;;;5.90;1.90;;;;;;;;;;5052833;28;20484;-75
2023/08/27 03:19:47;;;;;;;5.05;1.92;;;;;;;;;;5052237;28;20306;-75
2023/08/27 03:22:12;;;;;;;4.68;2.10;;;;;;;;;;5053713;28;20052;-75
2023/08/27 03:24:38;;;;;;;4.68;2.10;;;;;;;;;;5053577;28;20021;-75
2023/08/27 03:27:04;;;;;;;2.65;2.00;;;;;;;;;;5053395;28;20110;-75
2023/08/27 03:29:29;;;;;;;3.08;2.25;;;;;;;;;;5052035;28;20052;-75
2023/08/27 03:31:55;;;;;;;3.65;2.08;;;;;;;;;;5052014;28;20490;-76
2023/08/27 03:34:20;;;;;;;5.18;2.08;;;;;;;;;;5053389;28;20053;-75
2023/08/27 03:36:45;;;;;;;3.35;1.95;;;;;;;;;;5053699;28;20036;-74
2023/08/27 03:39:11;;;;;;;3.45;2.10;;;;;;;;;;5053071;28;20427;-74
2023/08/27 03:41:37;;;;;;;3.92;2.38;;;;;;;;;;5051866;28;20025;-74
2023/08/27 03:44:02;;;;;;;3.80;2.80;;;;;;;;;;5051929;28;20031;-75
2023/08/27 03:46:27;;;;;;;5.13;2.25;;;;;;;;;;5053111;28;20051;-74
2023/08/27 03:48:52;;;;;;;3.13;2.03;;;;;;;;;;5053259;28;20059;-74
2023/08/27 03:51:18;;;;;;;3.65;1.90;;;;;;;;;;5053132;28;20258;-74
2023/08/27 03:53:43;;;;;;;4.28;1.77;;;;;;;;;;5051944;28;20032;-75
2023/08/27 03:56:08;;;;;;;7.65;2.13;;;;;;;;;;5053013;28;20025;-73
2023/08/27 03:58:33;;;;;;;3.50;2.00;;;;;;;;;;5053446;28;20051;-74
2023/08/27 04:00:59;;;;;;;3.53;1.95;;;;;;;;;;5053028;28;20060;-74
2023/08/27 04:03:24;;;;;;;2.20;2.00;;;;;;;;;;5052922;28;20123;-74
2023/08/27 04:05:50;;;;;;;3.63;2.08;;;;;;;;;;5051852;28;20021;-74
2023/08/27 04:08:18;;;;;;;2.90;2.08;;;;;;;;;;5053016;28;20036;-75
2023/08/27 04:10:50;;;;;;;6.78;2.33;;;;;;;;;;5052969;28;20377;-75
2023/08/27 04:13:16;;;;;;;3.75;2.10;;;;;;;;;;5052867;28;20500;-74
2023/08/27 04:15:41;;;;;;;4.57;2.10;;;;;;;;;;5053320;28;20083;-75
2023/08/27 04:18:06;;;;;;;4.40;2.57;;;;;;;;;;5053044;28;20472;-74
2023/08/27 04:20:32;;;;;;;3.97;2.17;;;;;;;;;;5053087;28;20296;-74
2023/08/27 04:22:57;;;;;;;3.77;2.47;;;;;;;;;;5052859;28;20257;-74
2023/08/27 04:25:22;;;;;;;2.80;2.13;;;;;;;;;;5052849;28;20320;-75
2023/08/27 04:27:47;;;;;;;2.80;2.00;;;;;;;;;;5051463;28;20031;-74
2023/08/27 04:30:13;;;;;;;3.53;1.90;;;;;;;;;;5056398;28;20761;-75
2023/08/27 04:32:38;;;;;;;3.83;1.90;;;;;;;;;;5055711;28;20776;-74
2023/08/27 04:35:04;;;;;;;3.13;1.83;;;;;;;;;;5057162;28;20041;-75
2023/08/27 04:37:29;;;;;;;3.85;1.80;;;;;;;;;;5055232;28;20166;-74
2023/08/27 04:39:55;;;;;;;5.10;2.13;;;;;;;;;;5056341;28;20028;-75
2023/08/27 04:42:20;;;;;;;8.33;2.07;;;;;;;;;;5055552;28;20021;-75
2023/08/27 04:44:45;;;;;;;4.87;1.80;;;;;;;;;;5056923;28;20258;-76
2023/08/27 04:47:10;;;;;;;6.38;1.98;;;;;;;;;;5056620;28;20815;-75
2023/08/27 04:49:36;;;;;;;3.13;1.90;;;;;;;;;;5056611;28;20025;-75
2023/08/27 04:52:03;;;;;;;2.38;1.80;;;;;;;;;;5056769;28;20274;-75
2023/08/27 04:54:29;;;;;;;2.92;1.85;;;;;;;;;;5056739;28;20025;-75
2023/08/27 04:56:54;;;;;;;4.00;2.17;;;;;;;;;;5056855;28;20028;-75
2023/08/27 04:59:19;;;;;;;2.72;2.20;;;;;;;;;;5057078;28;20380;-76
2023/08/27 05:01:44;;;;;;;5.77;2.23;;;;;;;;;;5056479;28;20017;-75
2023/08/27 05:04:10;;;;;;;3.28;2.00;;;;;;;;;;5056382;28;20663;-75
2023/08/27 05:06:35;;;;;;;5.47;2.10;;;;;;;;;;5055361;28;20111;-75
2023/08/27 05:09:00;;;;;;;4.45;2.03;;;;;;;;;;5056278;28;20293;-75
2023/08/27 05:11:25;;;;;;;3.85;2.35;;;;;;;;;;5056158;28;20021;-75
2023/08/27 05:13:51;;;;;;;6.10;1.80;;;;;;;;;;5056118;28;20032;-75
2023/08/27 05:16:16;;;;;;;3.47;2.43;;;;;;;;;;5056259;28;20032;-75
2023/08/27 05:18:41;;;;;;;4.20;2.20;;;;;;;;;;5056201;28;20246;-75
2023/08/27 05:21:06;;;;;;;3.30;2.00;;;;;;;;;;5056018;28;20287;-75
2023/08/27 05:23:32;;;;;;;4.82;2.30;;;;;;;;;;5056275;28;20384;-75
2023/08/27 05:25:57;;;;;;;3.03;1.98;;;;;;;;;;5056194;28;20025;-75
2023/08/27 05:28:22;;;;;;;3.40;2.10;;;;;;;;;;5056145;28;20056;-75
2023/08/27 05:30:47;;;;;;;3.58;2.13;;;;;;;;;;5054456;28;20028;-75
2023/08/27 05:33:13;;;;;;;6.88;2.00;;;;;;;;;;5055958;28;20451;-75
2023/08/27 05:35:38;;;;;;;5.07;2.10;;;;;;;;;;5054592;28;20082;-75
2023/08/27 05:38:03;;;;;;;3.25;1.90;;;;;;;;;;5055537;28;20319;-76
2023/08/27 05:40:28;;;;;;;4.10;2.37;;;;;;;;;;5054715;28;20041;-75
2023/08/27 05:42:54;;;;;;;4.82;2.70;;;;;;;;;;5055523;28;20261;-76
2023/08/27 05:45:19;;;;;;;3.28;2.20;;;;;;;;;;5054658;28;20021;-75
2023/08/27 05:47:44;;;;;;;3.10;2.22;;;;;;;;;;5055386;28;20511;-75
2023/08/27 05:50:09;;;;;;;5.15;2.28;;;;;;;;;;5055628;28;20036;-77
2023/08/27 05:52:35;;;;;;;3.75;2.13;;;;;;;;;;5054124;28;20100;-75
2023/08/27 05:55:00;;;;;;;4.07;2.40;;;;;;;;;;5054162;28;20025;-75
2023/08/27 05:57:25;;;;;;;4.83;2.43;;;;;;;;;;5055472;28;20017;-75
2023/08/27 05:59:50;;;;;;;6.45;2.05;;;;;;;;;;5055545;28;20280;-75
2023/08/27 06:02:17;;;;;;;4.47;1.87;;;;;;;;;;5054113;28;20496;-75
2023/08/27 06:04:42;;;;;;;4.43;2.17;;;;;;;;;;5055757;28;20254;-75
2023/08/27 06:07:08;;;;;;;7.03;2.40;;;;;;;;;;5053718;28;20395;-76
2023/08/27 06:09:33;;;;;;;5.45;2.35;;;;;;;;;;5053820;28;20290;-75
2023/08/27 06:11:59;;;;;;;2.92;2.15;;;;;;;;;;5055132;28;20336;-75
2023/08/27 06:14:24;;;;;;;6.13;2.38;;;;;;;;;;5055038;28;20116;-75
2023/08/27 06:16:49;;;;;;;5.20;2.17;;;;;;;;;;5054901;28;20052;-75
2023/08/27 06:19:14;;;;;;;3.57;2.07;;;;;;;;;;5053710;28;20112;-75
2023/08/27 06:21:40;;;;;;;2.97;2.40;;;;;;;;;;5054790;28;20277;-75
2023/08/27 06:24:06;;;;;;;4.13;2.28;;;;;;;;;;5055592;28;20708;-75
2023/08/27 06:26:31;;;;;;;4.68;2.53;;;;;;;;;;5055508;28;20057;-76
2023/08/27 06:28:57;;;;;;;9.13;2.20;;;;;;;;;;5055181;28;20029;-75
2023/08/27 06:31:22;;;;;;;4.63;2.10;;;;;;;;;;5053825;28;20024;-76
2023/08/27 06:33:47;;;;;;;3.15;2.13;;;;;;;;;;5054924;28;20032;-76
2023/08/27 06:36:13;;;;;;;4.47;2.17;;;;;;;;;;5054635;28;20029;-75
2023/08/27 06:38:38;;;;;;;3.28;2.00;;;;;;;;;;5054819;28;20265;-76
2023/08/27 06:41:03;;;;;;;4.47;2.20;;;;;;;;;;5054844;28;20051;-75
2023/08/27 06:43:29;;;;;;;3.37;2.10;;;;;;;;;;5053659;28;20499;-75
2023/08/27 06:45:54;;;;;;;4.70;2.10;;;;;;;;;;5054699;28;20617;-75
2023/08/27 06:48:19;;;;;;;5.20;2.10;;;;;;;;;;5054638;28;20020;-75
2023/08/27 06:50:45;;;;;;;4.13;1.80;;;;;;;;;;5054952;28;20021;-75
2023/08/27 06:53:10;;;;;;;3.42;2.20;;;;;;;;;;5053346;28;20036;-75
2023/08/27 06:55:36;;;;;;;3.75;2.05;;;;;;;;;;5054804;28;20524;-75
2023/08/27 06:58:01;;;;;;;3.97;2.25;;;;;;;;;;5054810;28;20021;-77
2023/08/27 07:00:26;;;;;;;6.13;2.30;;;;;;;;;;5053269;28;20036;-76
2023/08/27 07:02:52;;;;;;;4.88;1.92;;;;;;;;;;5054413;28;20025;-75
2023/08/27 07:05:18;;;;;;;3.22;2.03;;;;;;;;;;5054510;28;20052;-76
2023/08/27 07:07:44;;;;;;;4.65;2.30;;;;;;;;;;5053136;28;20502;-75
2023/08/27 07:10:10;;;;;;;4.47;2.03;;;;;;;;;;5052940;28;20025;-75
2023/08/27 07:12:36;;;;;;;5.22;2.28;;;;;;;;;;5053284;28;20036;-75
2023/08/27 07:15:05;;;;;;;3.20;2.13;;;;;;;;;;5054515;28;20067;-75
2023/08/27 07:17:32;;;;;;;4.60;2.60;;;;;;;;;;5054465;28;20028;-76
2023/08/27 07:19:58;;;;;;;3.22;2.00;;;;;;;;;;5052939;28;20032;-75
2023/08/27 07:22:23;;;;;;;5.35;2.20;;;;;;;;;;5054255;28;20025;-75
2023/08/27 07:24:49;;;;;;;2.93;2.10;;;;;;;;;;5054604;28;20027;-75
2023/08/27 07:27:14;;;;;;;4.40;2.05;;;;;;;;;;5054405;28;20284;-75
2023/08/27 07:29:39;;;;;;;2.93;2.30;;;;;;;;;;5054045;28;20091;-75
2023/08/27 07:32:05;;;;;;;5.23;2.30;;;;;;;;;;5054158;28;20656;-75
2023/08/27 07:34:31;;;;;;;9.38;2.45;;;;;;;;;;5054552;28;20258;-75
2023/08/27 07:36:56;;;;;;;2.80;2.20;;;;;;;;;;5053945;28;20029;-75
2023/08/27 07:39:22;;;;;;;5.82;2.35;;;;;;;;;;5054762;28;20534;-75
2023/08/27 07:41:47;;;;;;;4.40;2.20;;;;;;;;;;5054068;28;20029;-75
2023/08/27 07:44:13;;;;;;;2.70;2.10;;;;;;;;;;5054153;28;20145;-75
2023/08/27 07:46:38;;;;;;;2.83;2.10;;;;;;;;;;5052562;28;20021;-75
2023/08/27 07:49:03;;;;;;;3.55;2.40;;;;;;;;;;5054206;28;20029;-76
2023/08/27 07:51:29;;;;;;;3.80;2.10;;;;;;;;;;5054271;28;20054;-75
2023/08/27 07:53:54;;;;;;;4.67;2.20;;;;;;;;;;5053979;28;20388;-75
2023/08/27 07:56:19;;;;;;;3.25;1.90;;;;;;;;;;5054264;28;20252;-75
2023/08/27 07:58:44;;;;;;;3.00;2.03;;;;;;;;;;5054006;28;20024;-75
2023/08/27 08:01:11;;;;;;;3.67;2.20;;;;;;;;;;5054159;28;20757;-75
2023/08/27 08:03:36;;;;;;;3.70;2.10;;;;;;;;;;5053321;28;20266;-75
2023/08/27 08:06:03;;;;;;;7.72;2.55;;;;;;;;;;5052654;28;20025;-76
2023/08/27 08:08:29;;;;;;;2.88;2.20;;;;;;;;;;5053834;28;20032;-75
2023/08/27 08:10:55;;;;;;;3.00;2.10;;;;;;;;;;5054284;28;20032;-75
2023/08/27 08:13:21;;;;;;;3.58;2.42;;;;;;;;;;5053863;28;20032;-75
2023/08/27 08:15:47;;;;;;;6.00;2.22;;;;;;;;;;5053628;28;20472;-76
2023/08/27 08:18:12;;;;;;;4.43;2.22;;;;;;;;;;5052313;28;20025;-76
2023/08/27 08:20:39;;;;;;;3.73;2.17;;;;;;;;;;5053714;28;20090;-75
2023/08/27 08:23:04;;;;;;;3.42;2.28;;;;;;;;;;5054080;28;20250;-76
2023/08/27 08:25:31;;;;;;;3.43;2.30;;;;;;;;;;5054154;28;20100;-75
2023/08/27 08:27:56;;;;;;;8.90;2.60;;;;;;;;;;5053282;28;20262;-75
2023/08/27 08:30:22;;;;;;;3.28;2.13;;;;;;;;;;5053638;28;20021;-76
2023/08/27 08:32:47;;;;;;;4.32;2.30;;;;;;;;;;5053743;28;20159;-76
2023/08/27 08:35:13;;;;;;;7.50;2.45;;;;;;;;;;5054402;28;20029;-76
2023/08/27 08:37:38;;;;;;;4.40;2.08;;;;;;;;;;5053573;28;20133;-75
2023/08/27 08:40:04;;;;;;;3.47;2.27;;;;;;;;;;5053900;28;20505;-76
2023/08/27 08:42:57;;;;;;;3.75;2.35;;;;;;;;;;5052451;28;20257;-75
2023/08/27 08:45:36;;;;;;;8.18;2.45;;;;;;;;;;5050833;28;20098;-75
2023/08/27 08:48:04;;;;;;;5.47;2.63;;;;;;;;;;5053551;28;20025;-76
2023/08/27 08:50:32;;;;;;;3.97;2.17;;;;;;;;;;5052385;28;20021;-75
2023/08/27 08:53:05;;;;;;;5.35;2.50;;;;;;;;;;5052390;28;20053;-75
2023/08/27 08:55:32;;;;;;;5.00;2.63;;;;;;;;;;5053486;28;20107;-75
2023/08/27 08:58:06;;;;;;;6.70;2.53;;;;;;;;;;5053769;28;20049;-76
2023/08/27 09:00:32;;;;;;;5.38;2.47;;;;;;;;;;5053631;28;20025;-76
2023/08/27 09:03:01;;;;;;;4.63;2.63;;;;;;;;;;5053314;28;20031;-75
2023/08/27 09:05:29;;;;;;;5.13;2.63;;;;;;;;;;5053567;28;20072;-75
2023/08/27 09:07:54;;;;;;;5.75;2.67;;;;;;;;;;5053558;28;20044;-75
2023/08/27 09:10:20;;;;;;;3.03;2.35;;;;;;;;;;5053174;28;20025;-75
2023/08/27 09:12:46;;;;;;;5.00;2.58;;;;;;;;;;5053471;28;20029;-75
2023/08/27 09:15:12;;;;;;;4.15;2.60;;;;;;;;;;5054001;28;20036;-75
2023/08/27 09:17:38;;;;;;;6.10;2.88;;;;;;;;;;5057146;28;20021;-75
2023/08/27 09:20:04;;;;;;;4.82;2.75;;;;;;;;;;5057183;28;20388;-75
2023/08/27 09:22:30;;;;;;;4.18;2.53;;;;;;;;;;5055640;28;20507;-76
2023/08/27 09:24:55;;;;;;;6.55;2.45;;;;;;;;;;5055724;28;20037;-75
2023/08/27 09:27:21;;;;;;;4.20;2.65;;;;;;;;;;5055458;28;20463;-76
2023/08/27 09:29:47;;;;;;;4.68;2.60;;;;;;;;;;5057259;28;20020;-75
2023/08/27 09:32:21;;;;;;;4.60;2.50;;;;;;;;;;5056932;28;20029;-75
2023/08/27 09:34:46;;;;;;;;;;;;;;;;;;5055664;28;20098;-75
2023/08/27 09:37:12;;;;;;;4.20;2.50;;;;;;;;;;5056088;28;19932;-75
2023/08/27 09:39:39;;;;;;;6.97;3.03;;;;;;;;;;5056634;28;20029;-76
2023/08/27 09:42:04;;;;;;;4.43;2.75;;;;;;;;;;5056857;28;20446;-75
2023/08/27 09:44:30;;;;;;;6.50;2.80;;;;;;;;;;5057271;28;20029;-75
2023/08/27 09:47:04;;;;;;;3.70;2.70;;;;;;;;;;5056524;28;20029;-76
2023/08/27 09:49:29;;;;;;;4.25;3.20;;;;;;;;;;5055300;28;20266;-75
2023/08/27 09:51:57;;;;;;;5.18;3.38;;;;;;;;;;5056654;28;20107;-76
2023/08/27 09:54:28;;;;;;;5.80;3.08;;;;;;;;;;5057594;28;20023;-75
2023/08/27 09:56:59;;;;;;;4.00;3.22;;;;;;;;;;5057183;28;20052;-75
2023/08/27 09:59:25;;;;;;;3.83;2.80;;;;;;;;;;5056971;28;20025;-75
2023/08/27 10:01:51;;;;;;;5.18;3.08;;;;;;;;;;5056169;28;20032;-75
2023/08/27 10:04:17;;;;;;;5.57;3.72;;;;;;;;;;5055927;28;20488;-75
2023/08/27 10:06:43;;;;;;;5.18;3.78;;;;;;;;;;5056299;28;20232;-75
2023/08/27 10:09:08;;;;;;;6.22;3.88;;;;;;;;;;5055009;28;20095;-75
2023/08/27 10:11:34;;;;;;;5.28;4.13;;;;;;;;;;5056194;28;20392;-75
2023/08/27 10:14:00;;;;;;;6.03;4.30;;;;;;;;;;5056570;28;20027;-75
2023/08/27 10:16:28;;;;;;;6.82;4.30;;;;;;;;;;5056079;28;20094;-75
2023/08/27 10:18:55;;;;;;;5.72;4.43;;;;;;;;;;5055999;28;20067;-75
2023/08/27 10:21:21;;;;;;;6.13;3.85;;;;;;;;;;5056105;28;20025;-75
2023/08/27 10:23:47;;;;;;;5.93;3.85;;;;;;;;;;5054820;28;20028;-76
2023/08/27 10:26:14;;;;;;;7.22;4.05;;;;;;;;;;5055536;28;20408;-75
2023/08/27 10:28:40;;;;;;;5.80;3.97;;;;;;;;;;5055385;28;20510;-75
2023/08/27 10:31:05;;;;;;;9.15;4.35;;;;;;;;;;5055059;28;20053;-75
2023/08/27 10:33:31;;;;;;;5.82;4.15;;;;;;;;;;5055627;28;20029;-75
2023/08/27 10:36:02;;;;;;;6.38;4.75;;;;;;;;;;5055403;28;20106;-75
2023/08/27 10:38:29;;;;;;;6.78;4.35;;;;;;;;;;5055588;28;20091;-75
2023/08/27 10:40:54;;;;;;;7.07;4.35;;;;;;;;;;5055903;28;20025;-75
2023/08/27 10:43:21;;;;;;;6.05;4.47;;;;;;;;;;5056128;28;20101;-75
2023/08/27 10:45:48;;;;;;;7.05;4.20;;;;;;;;;;5055696;28;20460;-76
2023/08/27 10:48:19;;;;;;;5.72;4.43;;;;;;;;;;5055311;28;20106;-75
2023/08/27 10:50:54;;;;;;;6.95;4.95;;;;;;;;;;5054098;28;20555;-75
2023/08/27 10:53:20;;;;;;;7.65;5.65;;;;;;;;;;5055558;28;20032;-75
2023/08/27 10:55:51;;;;;;;8.32;5.03;;;;;;;;;;5054334;28;20024;-75
2023/08/27 10:58:19;;;;;;;7.05;5.05;;;;;;;;;;5055548;28;20025;-75
2023/08/27 11:01:12;;;;;;;6.95;5.47;;;;;;;;;;5055644;28;20025;-75
2023/08/27 11:03:57;;;;;;;7.78;5.55;;;;;;;;;;5053788;28;20029;-76
2023/08/27 11:06:46;;;;;;;9.40;6.05;;;;;;;;;;5055097;28;20035;-75
2023/08/27 11:09:12;;;;;;;9.13;5.90;;;;;;;;;;5053600;28;20027;-77
2023/08/27 11:11:46;;;;;;;9.98;5.78;;;;;;;;;;5054019;28;20052;-75
2023/08/27 11:14:15;;;;;;;9.00;6.18;;;;;;;;;;5055273;28;20373;-76
2023/08/27 11:16:48;;;;;;;10.57;6.45;;;;;;;;;;5054920;28;20033;-75
2023/08/27 11:19:14;;;;;;;9.77;6.25;;;;;;;;;;5055334;28;20047;-75
2023/08/27 11:21:48;;;;;;;9.27;6.97;;;;;;;;;;5054683;28;20025;-75
2023/08/27 11:24:18;;;;;;;10.30;6.47;;;;;;;;;;5055048;28;20021;-75
2023/08/27 11:26:45;;;;;;;12.82;6.30;;;;;;;;;;5054683;28;20079;-75
2023/08/27 11:29:11;;;;;;;7.50;5.85;;;;;;;;;;5054929;28;20476;-75
2023/08/27 11:31:40;;;;;;;11.20;6.55;;;;;;;;;;5054518;28;20032;-76
2023/08/27 11:34:06;;;;;;;11.13;6.32;;;;;;;;;;5054377;28;20029;-77
2023/08/27 11:36:32;;;;;;;11.13;7.18;;;;;;;;;;5054778;28;20017;-75
2023/08/27 11:39:01;;;;;;;9.75;6.25;;;;;;;;;;5052572;28;20115;-75
2023/08/27 11:41:33;;;;;;;9.98;6.78;;;;;;;;;;5054283;28;20021;-75
2023/08/27 11:43:58;;;;;;;11.30;6.63;;;;;;;;;;5054245;28;20028;-75
2023/08/27 11:46:24;;;;;;;9.90;6.88;;;;;;;;;;5054437;28;20025;-75
2023/08/27 11:48:49;;;;;;;8.73;6.07;;;;;;;;;;5053118;28;20369;-75
2023/08/27 11:51:15;;;;;;;9.43;6.22;;;;;;;;;;5054793;28;20555;-75
2023/08/27 11:53:44;;;;;;;8.52;6.03;;;;;;;;;;5054468;28;20071;-76
2023/08/27 11:56:11;;;;;;;10.13;6.28;;;;;;;;;;5054545;28;20032;-76
2023/08/27 11:58:39;;;;;;;10.20;7.05;;;;;;;;;;5054220;28;20085;-75
2023/08/27 12:01:04;;;;;;;10.35;7.10;;;;;;;;;;5053990;28;20048;-75
2023/08/27 12:03:30;;;;;;;10.40;6.25;;;;;;;;;;5054074;28;20376;-75
2023/08/27 12:05:55;;;;;;;9.68;6.25;;;;;;;;;;5053865;28;20463;-75
2023/08/27 12:08:21;;;;;;;9.38;6.88;;;;;;;;;;5052663;28;20027;-76
2023/08/27 12:10:46;;;;;;;13.13;6.35;;;;;;;;;;5054106;28;20021;-75
2023/08/27 12:13:13;;;;;;;10.70;6.95;;;;;;;;;;5052619;28;20546;-75
2023/08/27 12:15:38;;;;;;;12.13;7.00;;;;;;;;;;5054149;28;20021;-75
2023/08/27 12:18:07;;;;;;;11.15;6.78;;;;;;;;;;5052942;28;20021;-75
2023/08/27 12:20:34;;;;;;;10.05;6.88;;;;;;;;;;5054308;28;20025;-75
2023/08/27 12:23:12;;;;;;;11.55;6.72;;;;;;;;;;5054227;28;20503;-75
2023/08/27 12:25:45;;;;;;;9.07;6.68;;;;;;;;;;5054533;28;20146;-75
2023/08/27 12:28:11;;;;;;;11.35;6.68;;;;;;;;;;5053882;28;20480;-75
2023/08/27 12:30:36;;;;;;;8.90;6.03;;;;;;;;;;5054221;28;20025;-75
2023/08/27 12:33:01;;;;;;;9.68;6.60;;;;;;;;;;5053731;28;20448;-75
2023/08/27 12:35:30;;;;;;;9.82;6.43;;;;;;;;;;5053258;28;20107;-75
2023/08/27 12:37:55;;;;;;;9.25;6.45;;;;;;;;;;5054350;28;20040;-75
2023/08/27 12:40:20;;;;;;;8.13;4.25;;;;;;;;;;5052684;28;20093;-75
2023/08/27 12:42:46;;;;;;;7.50;2.53;;;;;;;;;;5054008;28;20021;-75
2023/08/27 12:45:11;;;;;;;3.08;2.10;;;;;;;;;;5052999;28;20266;-75
2023/08/27 12:47:36;;;;;;;3.10;2.00;;;;;;;;;;5052831;28;20023;-75
2023/08/27 12:50:02;;;;;;;3.08;2.10;;;;;;;;;;5055473;28;20254;-75
2023/08/27 12:52:27;;;;;;;3.05;2.00;;;;;;;;;;5058368;28;20029;-75
2023/08/27 12:54:52;;;;;;;2.70;1.60;;;;;;;;;;5058141;28;20380;-75
2023/08/27 12:57:18;;;;;;;8.48;2.20;;;;;;;;;;5057827;28;20686;-75
2023/08/27 12:59:43;;;;;;;3.10;1.60;;;;;;;;;;5057887;28;20487;-75
2023/08/27 13:02:09;;;;;;;3.30;1.80;;;;;;;;;;5057585;28;20024;-75
2023/08/27 13:04:34;;;;;;;3.05;1.65;;;;;;;;;;5057072;28;20607;-75
2023/08/27 13:06:59;;;;;;;2.90;1.80;;;;;;;;;;5057963;28;20480;-75
2023/08/27 13:09:25;;;;;;;4.20;1.60;;;;;;;;;;5057517;28;20414;-75
2023/08/27 13:11:50;;;;;;;3.05;1.60;;;;;;;;;;5056525;28;20262;-75
2023/08/27 13:14:16;;;;;;;2.67;1.80;;;;;;;;;;5055214;28;20028;-74
2023/08/27 13:16:42;;;;;;;2.67;1.70;;;;;;;;;;5055522;28;20024;-74
2023/08/27 13:19:08;;;;;;;3.60;2.00;;;;;;;;;;5055556;28;20051;-74
2023/08/27 13:21:33;;;;;;;3.15;1.92;;;;;;;;;;5055285;28;20065;-74
2023/08/27 13:23:59;;;;;;;3.17;2.30;;;;;;;;;;5055621;28;20492;-74
2023/08/27 13:26:24;;;;;;;4.72;2.28;;;;;;;;;;5055324;28;20021;-74
2023/08/27 13:28:50;;;;;;;4.05;2.30;;;;;;;;;;5055547;28;20051;-74
2023/08/27 13:31:15;;;;;;;3.47;2.58;;;;;;;;;;5055486;28;20396;-74
2023/08/27 13:33:40;;;;;;;5.60;2.27;;;;;;;;;;5054235;28;20025;-74
2023/08/27 13:36:06;;;;;;;4.38;2.35;;;;;;;;;;5055471;28;20265;-74
2023/08/27 13:38:32;;;;;;;5.00;2.78;;;;;;;;;;5054943;28;20031;-74
2023/08/27 13:40:57;;;;;;;5.80;2.70;;;;;;;;;;5053772;28;20024;-74
2023/08/27 13:43:23;;;;;;;4.38;2.80;;;;;;;;;;5055170;28;20032;-74
2023/08/27 13:45:48;;;;;;;5.63;3.00;;;;;;;;;;5053982;28;20028;-76
2023/08/27 13:48:13;;;;;;;5.18;3.10;;;;;;;;;;5055509;28;20293;-74
2023/08/27 13:50:39;;;;;;;5.65;3.38;;;;;;;;;;5055175;28;20108;-74
2023/08/27 13:53:04;;;;;;;6.32;3.75;;;;;;;;;;5053687;28;20064;-74
2023/08/27 13:55:29;;;;;;;5.28;3.65;;;;;;;;;;5054867;28;20075;-74
2023/08/27 13:57:56;;;;;;;5.38;3.70;;;;;;;;;;5054847;28;20031;-74
2023/08/27 14:00:21;;;;;;;7.10;3.63;;;;;;;;;;5053570;28;20495;-74
2023/08/27 14:02:46;;;;;;;7.95;3.60;;;;;;;;;;5052694;28;20025;-74
2023/08/27 14:05:12;;;;;;;5.93;3.80;;;;;;;;;;5055275;28;20384;-74
2023/08/27 14:07:37;;;;;;;6.22;3.95;;;;;;;;;;5054471;28;20276;-74
2023/08/27 14:10:03;;;;;;;4.40;3.45;;;;;;;;;;5054603;28;20033;-74
2023/08/27 14:12:28;;;;;;;5.90;3.50;;;;;;;;;;5054412;28;20037;-74
2023/08/27 14:14:54;;;;;;;5.90;3.80;;;;;;;;;;5054436;28;20066;-74
2023/08/27 14:17:21;;;;;;;4.70;3.15;;;;;;;;;;5054374;28;20261;-74
2023/08/27 14:19:47;;;;;;;4.03;2.80;;;;;;;;;;5053036;28;20029;-74
2023/08/27 14:22:12;;;;;;;3.80;2.60;;;;;;;;;;5053013;28;20028;-74
2023/08/27 14:24:38;;;;;;;6.03;2.92;;;;;;;;;;5053010;28;20090;-74
2023/08/27 14:27:03;;;;;;;3.60;3.20;;;;;;;;;;5054188;28;20024;-74
2023/08/27 14:29:28;;;;;;;5.07;2.88;;;;;;;;;;5054198;28;20759;-74
2023/08/27 14:31:54;;;;;;;6.55;2.78;;;;;;;;;;5053155;28;20053;-74
2023/08/27 14:34:19;;;;;;;6.03;3.20;;;;;;;;;;5054115;28;20498;-75
2023/08/27 14:36:45;;;;;;;6.53;2.63;;;;;;;;;;5054204;28;20558;-74
2023/08/27 14:39:10;;;;;;;4.80;2.67;;;;;;;;;;5052656;28;20274;-74